Rosedale, IN (47874)

21:36 EST le 23 novembre 2014 (GMT -0500)
GUITAR LAKE | Change Station
CLOSE
Current Station
Stations météorologiques personnelles
Location: BRAZIL, IN
Altitude: 650 ft
Stations météo à proximité
Avis météorologiques actifs: Wind Advisory

Alt. 650 ft 39.48 °N, 87.17 °W | Updated 10 seconds ago

Pluie
Pluie
51.4 ° F
Paraît 51.4 ° F
N
0.7
Vent Variable Vent de Sud
Gusts 2.2 mph

Aujourd'hui
Haut(e) -- | Bas -- ° F
--% Risque de précip.
Hier
Haut(e) -- | Bas -- ° F
Precip. -- pouce
7:42 AM 5:28 PM
Lune montante, 3% visible
Pression 29.22 pouce
Visibilité 4.0 Miles terrestres
Nuages Nuageux 500 ft
Nuageux 900 ft
Couvert 1500 ft
Point de rosée 51 ° F
Humidité 99%
Précipitations 1.24 pouce
Profondeur de la couche neigeuse Non disponible.
UV 0 sur 12
Pollen .10 sur 12
Qualité de l'air Non disponible.
Flu Activity Non disponible.
SPECI KHUF 240218Z 10005KT 4SM RA BR BKN005 BKN009 OVC015 11/11 A2922 RMK AO2 P0006 T01110106 $

More Conditions Fewer Conditions

Pression 29.22 pouce
Visibilité 4.0 Miles terrestres
Nuages Nuageux 500 ft
Nuageux 900 ft
Couvert 1500 ft
Point de rosée 51 ° F
Humidité 99%
Précipitations 1.24 pouce
Profondeur de la couche neigeuse Non disponible.
UV 0 sur 12
Pollen .10 sur 12
Qualité de l'air Non disponible.
Flu Activity Non disponible.
SPECI KHUF 240218Z 10005KT 4SM RA BR BKN005 BKN009 OVC015 11/11 A2922 RMK AO2 P0006 T01110106 $

More Conditions Fewer Conditions

10-Day Weather Forecast

Almanac

Astronomie

Nov. 23, 2014 Lever Coucher
Temps réel
Crépuscule civil
Crépuscule nautique
Crépuscule astronomique
Lune
Durée de lumière visible
Longueur du jour
Tomorrow will be .
, % of the Moon is Illuminated

Extrêmes aujourd'hui

State Highs State Lows

Community

WunderPhotos

Upload Photos

1,773,257 Photos téléchargées !

WunderBlogs® & News

Nearby

Qualité de l'air

  Qualité de l'air Indice de la qualité de l'air Polluant
Not available.

Épaisseur de neige

Station Depth Altitude

Activité sismique

Ville Distance Mag. Time & Date
Minimum magnitude displayed is 2.5.

Températures des eaux côtières

Lieu Température

Stations météo à proximité